Time;durP1;ratioP1;P1;durP2;ratioP2;P2;SDS_P1;SDS_P2;PMS_P1;PMS_P2;Temp;Humidity;BMP_temperature;BMP_pressure;BME280_temperature;BME280_humidity;BME280_pressure;Samples;Min_cycle;Max_cycle;Signal;HPM_P1;HPM_P2
2023/06/12 00:02:13;;;;;;;7.50;4.43;;;21.00;93.00;;;;;;5009639;28;20397;-69
2023/06/12 00:04:39;;;;;;;8.50;5.15;;;21.00;92.90;;;;;;5004018;28;20225;-70
2023/06/12 00:07:05;;;;;;;6.72;4.82;;;21.00;93.00;;;;;;5013413;28;20212;-71
2023/06/12 00:09:32;;;;;;;5.28;4.50;;;21.00;93.00;;;;;;5023966;28;20220;-72
2023/06/12 00:11:58;;;;;;;6.22;4.25;;;20.90;93.10;;;;;;5024571;28;20302;-71
2023/06/12 00:14:24;;;;;;;7.18;4.22;;;20.90;93.20;;;;;;5024537;28;20300;-71
2023/06/12 00:16:49;;;;;;;5.25;4.57;;;20.90;93.10;;;;;;5025024;28;20208;-71
2023/06/12 00:19:15;;;;;;;5.90;4.60;;;20.80;92.90;;;;;;5024818;28;20263;-72
2023/06/12 00:21:41;;;;;;;7.38;4.63;;;20.80;93.20;;;;;;5027744;28;20204;-72
2023/06/12 00:24:08;;;;;;;7.00;4.78;;;20.70;93.10;;;;;;5025961;28;20282;-72
2023/06/12 00:26:38;;;;;;;7.03;4.72;;;20.60;93.30;;;;;;5028547;28;20208;-72
2023/06/12 00:29:03;;;;;;;7.40;5.13;;;20.60;93.40;;;;;;5028737;28;20208;-71
2023/06/12 00:31:29;;;;;;;7.55;5.30;;;20.50;93.60;;;;;;5028818;28;20212;-72
2023/06/12 00:33:55;;;;;;;8.50;4.90;;;20.40;93.60;;;;;;5028957;28;20212;-70
2023/06/12 00:36:22;;;;;;;5.80;4.28;;;20.50;93.70;;;;;;5025412;28;20208;-73
2023/06/12 00:38:48;;;;;;;8.75;5.05;;;20.40;93.60;;;;;;5029492;28;20208;-71
2023/06/12 00:41:14;;;;;;;9.07;4.85;;;20.40;93.60;;;;;;5024688;28;20196;-71
2023/06/12 00:43:40;;;;;;;7.18;4.88;;;20.30;93.50;;;;;;5023024;28;20578;-70
2023/06/12 00:46:06;;;;;;;10.48;5.28;;;20.30;93.50;;;;;;5019924;28;20211;-71
2023/06/12 00:48:32;;;;;;;6.65;4.53;;;20.30;93.20;;;;;;5023361;28;20243;-71
2023/06/12 00:50:59;;;;;;;6.03;4.90;;;20.30;93.30;;;;;;5025172;28;20646;-69
2023/06/12 00:53:25;;;;;;;5.97;4.68;;;20.30;93.20;;;;;;5028495;28;20200;-72
2023/06/12 00:55:51;;;;;;;6.18;4.72;;;20.20;93.00;;;;;;5026411;28;20303;-72
2023/06/12 00:58:17;;;;;;;7.88;4.88;;;20.30;93.10;;;;;;5028595;28;20240;-71
2023/06/12 01:00:43;;;;;;;5.03;3.97;;;20.30;93.10;;;;;;5026730;28;20239;-72
2023/06/12 01:03:12;;;;;;;9.80;4.30;;;20.20;93.10;;;;;;5025176;28;20211;-69
2023/06/12 01:05:42;;;;;;;6.15;4.38;;;20.20;93.20;;;;;;5026195;28;20187;-72
2023/06/12 01:08:18;;;;;;;7.25;4.70;;;20.20;93.10;;;;;;5027048;28;20706;-71
2023/06/12 01:10:43;;;;;;;7.22;4.38;;;20.20;93.00;;;;;;5027587;28;20625;-72
2023/06/12 01:13:12;;;;;;;8.13;4.45;;;20.10;93.00;;;;;;5029003;28;20208;-72
2023/06/12 01:15:38;;;;;;;6.65;3.88;;;20.00;92.70;;;;;;5026612;28;20200;-72
2023/06/12 01:18:06;;;;;;;6.22;4.10;;;20.00;92.60;;;;;;5028369;28;20219;-72
2023/06/12 01:20:34;;;;;;;8.75;4.20;;;20.00;92.40;;;;;;5023514;28;20200;-71
2023/06/12 01:23:13;;;;;;;4.90;3.67;;;19.90;92.50;;;;;;5030191;28;20723;-68
2023/06/12 01:25:47;;;;;;;5.80;3.88;;;19.90;92.30;;;;;;5021880;28;20212;-72
2023/06/12 01:28:39;;;;;;;5.75;4.53;;;19.90;92.00;;;;;;5021424;28;20294;-72
2023/06/12 01:32:09;;;;;;;8.90;4.78;;;19.90;91.90;;;;;;5016055;28;20367;-72
2023/06/12 01:34:50;;;;;;;7.28;4.15;;;19.90;91.70;;;;;;5000404;28;20232;-71
2023/06/12 01:37:43;;;;;;;9.10;4.40;;;19.80;91.70;;;;;;4988632;28;20299;-68
2023/06/12 01:40:12;;;;;;;5.40;3.95;;;19.80;91.60;;;;;;5002436;28;20212;-72
2023/06/12 01:42:39;;;;;;;5.22;3.85;;;19.70;91.70;;;;;;5027062;28;20200;-70
2023/06/12 01:45:06;;;;;;;5.85;4.38;;;19.70;91.60;;;;;;5036664;23;20322;-72
2023/06/12 01:47:31;;;;;;;5.28;3.80;;;19.60;91.50;;;;;;5036553;28;20184;-72
2023/06/12 01:49:57;;;;;;;6.07;4.15;;;19.60;91.40;;;;;;5033963;28;20270;-72
2023/06/12 01:52:22;;;;;;;5.30;3.67;;;19.70;91.20;;;;;;5040624;28;20208;-72
2023/06/12 01:54:48;;;;;;;6.60;3.67;;;19.70;91.00;;;;;;5038321;28;20248;-72
2023/06/12 01:57:15;;;;;;;5.32;3.92;;;19.60;91.00;;;;;;5035173;28;20335;-72
2023/06/12 01:59:41;;;;;;;6.32;3.70;;;19.60;91.00;;;;;;5040011;28;20694;-72
2023/06/12 02:02:07;;;;;;;11.68;3.65;;;19.50;90.70;;;;;;5031926;28;20239;-72
2023/06/12 02:04:33;;;;;;;4.72;3.50;;;19.50;90.60;;;;;;5040010;28;20228;-72
2023/06/12 02:06:58;;;;;;;6.43;3.20;;;19.50;90.70;;;;;;5033461;28;20261;-72
2023/06/12 02:09:24;;;;;;;7.97;3.50;;;19.50;90.30;;;;;;5033922;28;20213;-72
2023/06/12 02:11:50;;;;;;;5.25;3.40;;;19.40;90.20;;;;;;5038173;28;20555;-73
2023/06/12 02:14:15;;;;;;;5.78;3.30;;;19.50;90.10;;;;;;5033923;28;20208;-73
2023/06/12 02:16:41;;;;;;;5.70;3.65;;;19.40;90.10;;;;;;5036741;28;20229;-72
2023/06/12 02:19:07;;;;;;;3.83;3.42;;;19.40;90.40;;;;;;5034220;28;20204;-72
2023/06/12 02:21:33;;;;;;;6.20;3.75;;;19.40;90.00;;;;;;5038401;28;20274;-73
2023/06/12 02:23:58;;;;;;;5.03;3.53;;;19.30;90.10;;;;;;5035834;28;20168;-70
2023/06/12 02:26:24;;;;;;;6.22;3.80;;;19.30;90.10;;;;;;5038341;28;20619;-73
2023/06/12 02:29:07;;;;;;;6.05;3.90;;;19.30;89.70;;;;;;5037064;28;20204;-72
2023/06/12 02:31:33;;;;;;;6.78;3.67;;;19.30;89.80;;;;;;5037127;28;20203;-72
2023/06/12 02:33:58;;;;;;;7.00;3.60;;;19.30;90.00;;;;;;5037365;28;20720;-73
2023/06/12 02:36:24;;;;;;;5.07;3.72;;;19.30;90.10;;;;;;5016861;28;20255;-72
2023/06/12 02:38:50;;;;;;;7.57;3.78;;;19.30;90.20;;;;;;5034763;28;20216;-73
2023/06/12 02:41:16;;;;;;;6.63;3.38;;;19.30;90.20;;;;;;5032988;28;20238;-73
2023/06/12 02:43:41;;;;;;;3.83;3.25;;;19.30;89.50;;;;;;5035189;28;20291;-73
2023/06/12 02:46:07;;;;;;;4.53;3.22;;;19.30;89.20;;;;;;5033508;28;20334;-73
2023/06/12 02:48:32;;;;;;;4.30;3.80;;;19.20;89.20;;;;;;5036480;28;20211;-73
2023/06/12 02:50:58;;;;;;;5.38;3.13;;;19.20;89.80;;;;;;5036981;28;20278;-73
2023/06/12 02:53:24;;;;;;;4.35;3.20;;;19.20;89.70;;;;;;5035871;28;20711;-73
2023/06/12 02:55:49;;;;;;;7.47;3.30;;;19.20;90.00;;;;;;5039712;28;20207;-73
2023/06/12 02:58:15;;;;;;;6.22;3.70;;;19.20;90.30;;;;;;5036534;28;20624;-72
2023/06/12 03:00:41;;;;;;;6.50;4.57;;;19.10;90.40;;;;;;5041849;28;20235;-72
2023/06/12 03:03:07;;;;;;;6.18;4.30;;;19.20;90.60;;;;;;5037714;28;20212;-71
2023/06/12 03:05:34;;;;;;;5.97;3.50;;;19.20;90.70;;;;;;5042101;28;20245;-73
2023/06/12 03:08:02;;;;;;;5.15;3.95;;;19.20;90.70;;;;;;5038922;28;20258;-73
2023/06/12 03:10:28;;;;;;;5.43;3.70;;;19.20;90.80;;;;;;5043466;28;20208;-73
2023/06/12 03:12:54;;;;;;;5.78;3.97;;;19.30;90.90;;;;;;5041181;28;20204;-73
2023/06/12 03:15:20;;;;;;;8.57;4.60;;;19.30;90.80;;;;;;5033587;28;20215;-72
2023/06/12 03:17:45;;;;;;;7.00;5.28;;;19.40;90.80;;;;;;5034611;28;20184;-73
2023/06/12 03:20:11;;;;;;;7.28;5.50;;;19.40;90.90;;;;;;5034258;28;20172;-74
2023/06/12 03:22:37;;;;;;;8.00;6.55;;;19.50;91.10;;;;;;5034215;28;20280;-72
2023/06/12 03:25:03;;;;;;;8.32;5.05;;;19.90;91.00;;;;;;5034937;28;20204;-72
2023/06/12 03:27:29;;;;;;;7.28;5.20;;;20.80;90.50;;;;;;5032276;28;20216;-72
2023/06/12 03:29:55;;;;;;;6.00;3.50;;;21.60;88.60;;;;;;5038504;28;20178;-72
2023/06/12 03:32:21;;;;;;;5.80;3.70;;;22.40;86.60;;;;;;5034969;28;20270;-72
2023/06/12 03:34:47;;;;;;;6.93;4.03;;;22.60;85.60;;;;;;5032430;28;20259;-72
2023/06/12 03:37:13;;;;;;;5.78;3.60;;;22.70;84.70;;;;;;5035906;28;20223;-72
2023/06/12 03:39:38;;;;;;;9.38;4.57;;;22.40;84.80;;;;;;5041478;28;20295;-72
2023/06/12 03:42:04;;;;;;;5.97;4.40;;;22.30;85.60;;;;;;5037820;28;20295;-72
2023/06/12 03:44:30;;;;;;;6.93;4.65;;;22.50;85.10;;;;;;5040042;28;20305;-72
2023/06/12 03:46:56;;;;;;;6.45;4.72;;;22.80;84.50;;;;;;5039472;28;20587;-73
2023/06/12 03:49:23;;;;;;;7.07;4.85;;;23.20;84.00;;;;;;5040954;28;20215;-72
2023/06/12 03:51:48;;;;;;;9.40;6.22;;;24.20;82.00;;;;;;5040280;28;20592;-72
2023/06/12 03:54:14;;;;;;;6.20;5.47;;;24.90;79.70;;;;;;5031775;28;20221;-72
2023/06/12 03:56:41;;;;;;;6.47;5.18;;;25.30;78.40;;;;;;5032297;28;20193;-72
2023/06/12 03:59:07;;;;;;;8.35;5.43;;;25.60;77.20;;;;;;5034072;28;20589;-73
2023/06/12 04:01:33;;;;;;;6.72;5.43;;;26.10;75.90;;;;;;5031034;28;20205;-72
2023/06/12 04:03:58;;;;;;;8.38;3.80;;;26.50;75.00;;;;;;5036976;28;20203;-72
2023/06/12 04:06:24;;;;;;;6.20;3.60;;;26.80;75.20;;;;;;5029003;28;20216;-71
2023/06/12 04:08:53;;;;;;;11.20;6.47;;;27.00;73.10;;;;;;5040108;28;20209;-71
2023/06/12 04:11:19;;;;;;;6.82;4.90;;;27.60;72.20;;;;;;5032981;28;20184;-71
2023/06/12 04:13:45;;;;;;;5.38;4.10;;;27.90;70.90;;;;;;5041751;28;20204;-71
2023/06/12 04:16:11;;;;;;;4.82;4.03;;;28.10;70.50;;;;;;5034637;28;20208;-71
2023/06/12 04:18:38;;;;;;;7.20;5.93;;;28.00;70.00;;;;;;5038425;28;20325;-71
2023/06/12 04:21:05;;;;;;;6.72;4.82;;;28.40;69.40;;;;;;5039207;28;20235;-71
2023/06/12 04:23:32;;;;;;;5.28;3.53;;;29.00;67.90;;;;;;5039596;28;20689;-72
2023/06/12 04:26:04;;;;;;;5.28;3.28;;;29.30;67.60;;;;;;5038708;28;20215;-72
2023/06/12 04:28:36;;;;;;;5.70;3.85;;;29.90;66.20;;;;;;5041747;28;20223;-71
2023/06/12 04:31:02;;;;;;;8.18;4.05;;;30.10;65.30;;;;;;5031037;28;20214;-71
2023/06/12 04:33:32;;;;;;;7.43;3.97;;;30.00;65.10;;;;;;5020009;28;20209;-72
2023/06/12 04:35:58;;;;;;;5.15;3.67;;;30.40;65.40;;;;;;5020127;28;20232;-72
2023/06/12 04:38:27;;;;;;;5.30;3.90;;;30.30;64.60;;;;;;5030772;28;20173;-71
2023/06/12 04:40:54;;;;;;;6.65;4.07;;;31.20;64.40;;;;;;5041130;28;20214;-72
2023/06/12 04:43:20;;;;;;;3.95;3.47;;;31.20;62.80;;;;;;5031458;28;20269;-72
2023/06/12 04:45:46;;;;;;;5.07;3.90;;;31.00;62.50;;;;;;5029347;28;20220;-72
2023/06/12 04:48:12;;;;;;;5.78;4.00;;;31.60;62.30;;;;;;5033392;28;20293;-71
2023/06/12 04:50:38;;;;;;;5.75;3.90;;;31.50;62.50;;;;;;5039412;28;20627;-71
2023/06/12 04:53:03;;;;;;;6.18;3.85;;;31.10;61.20;;;;;;5041969;28;20208;-71
2023/06/12 04:55:30;;;;;;;6.97;3.97;;;30.50;61.60;;;;;;5040190;28;20204;-71
2023/06/12 04:57:57;;;;;;;4.50;3.88;;;31.10;62.10;;;;;;5041166;28;20207;-72
2023/06/12 05:00:25;;;;;;;6.13;4.18;;;31.60;61.80;;;;;;5039890;28;20212;-71
2023/06/12 05:02:52;;;;;;;5.70;3.72;;;31.60;60.80;;;;;;5039735;28;20175;-72
2023/06/12 05:05:19;;;;;;;5.15;3.78;;;31.70;59.90;;;;;;5039306;28;20204;-72
2023/06/12 05:07:45;;;;;;;5.38;3.53;;;31.60;60.40;;;;;;5041267;28;20241;-72
2023/06/12 05:10:13;;;;;;;8.23;3.60;;;31.10;61.40;;;;;;5038604;28;20210;-72
2023/06/12 05:12:38;;;;;;;7.30;3.55;;;29.90;61.20;;;;;;5039168;28;20235;-72
2023/06/12 05:15:04;;;;;;;7.55;3.60;;;30.20;62.50;;;;;;5036604;28;20251;-72
2023/06/12 05:17:31;;;;;;;6.05;3.55;;;30.70;61.90;;;;;;5037974;28;20183;-72
2023/06/12 05:19:57;;;;;;;4.38;3.70;;;31.10;60.40;;;;;;5015632;28;20208;-72
2023/06/12 05:22:22;;;;;;;6.65;3.83;;;31.70;60.10;;;;;;5017713;28;20714;-72
2023/06/12 05:24:48;;;;;;;5.18;3.33;;;31.50;60.30;;;;;;5029989;28;20568;-73
2023/06/12 05:27:14;;;;;;;9.13;4.20;;;31.20;59.30;;;;;;5038706;28;20789;-72
2023/06/12 05:29:40;;;;;;;7.82;3.78;;;32.20;59.70;;;;;;5041640;28;20176;-72
2023/06/12 05:32:06;;;;;;;6.63;5.50;;;31.60;58.50;;;;;;5038562;28;20577;-72
2023/06/12 05:34:32;;;;;;;5.65;3.47;;;31.50;59.30;;;;;;5039727;28;20301;-72
2023/06/12 05:36:57;;;;;;;5.00;3.45;;;31.60;59.50;;;;;;5038244;28;20270;-72
2023/06/12 05:39:23;;;;;;;5.35;3.92;;;31.50;58.80;;;;;;5037386;28;20212;-72
2023/06/12 05:41:49;;;;;;;8.50;4.00;;;31.70;58.70;;;;;;5040851;28;20172;-72
2023/06/12 05:44:15;;;;;;;5.93;4.75;;;31.70;58.70;;;;;;5038140;28;20267;-72
2023/06/12 05:46:40;;;;;;;7.05;3.42;;;32.30;58.00;;;;;;5039968;28;20216;-72
2023/06/12 05:49:07;;;;;;;6.45;4.03;;;31.70;58.10;;;;;;5036548;28;20814;-73
2023/06/12 05:51:32;;;;;;;7.75;3.70;;;31.50;58.90;;;;;;5038273;28;20258;-72
2023/06/12 05:53:58;;;;;;;6.05;3.38;;;31.50;59.60;;;;;;5037691;28;20623;-73
2023/06/12 05:56:24;;;;;;;8.38;3.90;;;32.30;58.20;;;;;;5036766;28;20231;-73
2023/06/12 05:58:50;;;;;;;7.03;4.05;;;33.10;58.00;;;;;;5039665;28;20226;-72
2023/06/12 06:01:21;;;;;;;7.55;4.88;;;33.60;57.40;;;;;;5038926;28;20681;-73
2023/06/12 06:03:48;;;;;;;9.82;4.35;;;34.10;56.50;;;;;;5040623;28;20200;-72
2023/06/12 06:06:15;;;;;;;7.90;3.83;;;33.80;56.10;;;;;;5036825;28;20222;-73
2023/06/12 06:08:41;;;;;;;5.68;5.07;;;33.30;56.00;;;;;;5040727;28;20172;-72
2023/06/12 06:11:06;;;;;;;9.45;4.50;;;33.50;56.40;;;;;;5040185;28;20289;-72
2023/06/12 06:13:32;;;;;;;7.45;4.63;;;33.80;56.30;;;;;;5042406;28;20341;-75
2023/06/12 06:15:58;;;;;;;6.78;4.20;;;33.50;56.30;;;;;;5044911;28;20225;-73
2023/06/12 06:18:24;;;;;;;12.57;4.75;;;33.20;56.40;;;;;;5043172;28;20302;-72
2023/06/12 06:20:49;;;;;;;6.30;3.75;;;33.20;57.10;;;;;;5045471;28;20167;-72
2023/06/12 06:23:15;;;;;;;5.43;4.15;;;33.50;56.40;;;;;;5041268;28;20602;-73
2023/06/12 06:25:43;;;;;;;6.25;5.55;;;33.90;56.10;;;;;;5045129;28;20203;-72
2023/06/12 06:28:08;;;;;;;5.68;4.07;;;33.80;56.10;;;;;;5041202;28;20203;-72
2023/06/12 06:30:34;;;;;;;7.10;5.10;;;33.70;56.40;;;;;;5042529;28;20229;-73
2023/06/12 06:33:00;;;;;;;6.38;4.25;;;34.00;56.00;;;;;;5045286;28;20170;-72
2023/06/12 06:35:25;;;;;;;6.18;4.55;;;33.60;56.40;;;;;;5041067;28;20204;-72
2023/06/12 06:37:51;;;;;;;8.35;4.22;;;33.80;56.20;;;;;;5043557;28;20678;-73
2023/06/12 06:40:17;;;;;;;5.85;3.78;;;34.20;56.30;;;;;;5040547;28;20208;-72
2023/06/12 06:42:42;;;;;;;6.00;3.83;;;34.20;55.80;;;;;;5044079;28;20200;-71
2023/06/12 06:45:08;;;;;;;5.38;4.22;;;34.40;56.00;;;;;;5040284;28;20226;-72
2023/06/12 06:47:34;;;;;;;5.72;3.83;;;34.60;55.50;;;;;;5044909;28;20183;-73
2023/06/12 06:50:00;;;;;;;5.32;4.07;;;34.70;55.60;;;;;;5043526;28;20210;-73
2023/06/12 06:52:26;;;;;;;5.70;3.42;;;35.10;55.20;;;;;;5042456;28;20213;-72
2023/06/12 06:54:52;;;;;;;6.68;4.93;;;35.20;55.30;;;;;;5045139;28;20226;-72
2023/06/12 06:57:18;;;;;;;7.00;4.32;;;35.60;55.20;;;;;;5040520;28;20219;-72
2023/06/12 06:59:47;;;;;;;7.70;5.68;;;35.40;55.00;;;;;;5043414;28;20175;-72
2023/06/12 07:02:12;;;;;;;7.80;5.32;;;35.40;54.50;;;;;;5036822;28;20705;-71
2023/06/12 07:04:38;;;;;;;6.85;4.40;;;35.40;54.20;;;;;;5044338;28;20207;-71
2023/06/12 07:07:04;;;;;;;4.93;3.88;;;35.30;54.70;;;;;;5040164;28;20203;-72
2023/06/12 07:09:29;;;;;;;5.45;3.63;;;34.40;54.80;;;;;;5040590;28;20202;-71
2023/06/12 07:11:55;;;;;;;7.85;4.32;;;35.40;55.20;;;;;;5043893;28;20578;-72
2023/06/12 07:14:21;;;;;;;5.15;3.63;;;35.50;54.50;;;;;;5043171;28;20203;-73
2023/06/12 07:16:46;;;;;;;6.78;3.80;;;35.60;54.60;;;;;;5036344;28;20203;-71
2023/06/12 07:19:12;;;;;;;5.63;3.78;;;35.10;55.20;;;;;;5041829;28;20231;-72
2023/06/12 07:21:38;;;;;;;5.18;3.38;;;35.60;54.40;;;;;;5040841;28;20196;-72
2023/06/12 07:24:04;;;;;;;4.80;4.30;;;35.80;54.40;;;;;;5045786;28;20214;-72
2023/06/12 07:26:30;;;;;;;4.30;3.90;;;35.40;53.90;;;;;;5039176;28;20274;-71
2023/06/12 07:28:57;;;;;;;8.38;4.07;;;35.40;53.90;;;;;;5040297;28;20697;-70
2023/06/12 07:31:23;;;;;;;4.40;3.42;;;35.80;53.90;;;;;;5022032;28;20296;-71
2023/06/12 07:33:48;;;;;;;7.63;4.15;;;35.20;53.40;;;;;;5044118;28;20293;-72
2023/06/12 07:36:15;;;;;;;4.80;3.70;;;35.20;53.90;;;;;;5040944;28;20532;-71
2023/06/12 07:38:41;;;;;;;6.80;4.13;;;36.40;53.60;;;;;;5042710;28;20621;-72
2023/06/12 07:41:07;;;;;;;6.22;3.85;;;37.00;52.80;;;;;;5042606;28;20294;-72
2023/06/12 07:43:34;;;;;;;4.85;4.00;;;36.60;53.50;;;;;;5044707;28;20295;-72
2023/06/12 07:46:20;;;;;;;4.97;3.58;;;34.40;53.00;;;;;;5049563;22;20220;-72
2023/06/12 07:48:46;;;;;;;6.28;3.65;;;34.50;54.30;;;;;;5026044;28;20208;-71
2023/06/12 07:51:14;;;;;;;11.50;4.95;;;34.00;53.80;;;;;;5009581;28;20228;-72
2023/06/12 07:53:40;;;;;;;6.10;3.90;;;34.00;54.30;;;;;;5007028;28;20193;-72
2023/06/12 07:56:07;;;;;;;6.65;3.97;;;33.50;54.00;;;;;;5007456;28;20591;-71
2023/06/12 07:58:35;;;;;;;4.35;3.50;;;32.60;54.80;;;;;;5000532;28;20232;-72
2023/06/12 08:01:04;;;;;;;5.18;3.58;;;32.90;55.40;;;;;;5001774;28;20280;-72
2023/06/12 08:03:30;;;;;;;7.68;3.70;;;32.60;54.40;;;;;;5003290;28;20245;-72
2023/06/12 08:05:56;;;;;;;9.32;4.07;;;33.30;54.60;;;;;;5000936;28;20232;-72
2023/06/12 08:08:22;;;;;;;7.40;3.72;;;33.50;54.60;;;;;;5000542;28;20289;-72
2023/06/12 08:10:48;;;;;;;7.32;3.80;;;33.40;54.90;;;;;;5003162;28;20236;-69
2023/06/12 08:13:13;;;;;;;7.25;3.58;;;33.60;53.90;;;;;;4999779;28;20672;-70
2023/06/12 08:15:39;;;;;;;7.40;3.78;;;34.50;53.60;;;;;;5004545;28;20704;-70
2023/06/12 08:18:05;;;;;;;9.98;4.00;;;34.00;53.20;;;;;;5001778;28;20291;-71
2023/06/12 08:20:33;;;;;;;5.95;3.45;;;34.20;53.80;;;;;;5005630;28;20184;-70
2023/06/12 08:22:59;;;;;;;6.80;3.53;;;32.90;51.50;;;;;;5000052;28;20292;-71
2023/06/12 08:25:25;;;;;;;6.22;3.40;;;32.80;53.20;;;;;;5000429;28;20289;-68
2023/06/12 08:27:51;;;;;;;6.97;3.22;;;33.00;52.00;;;;;;5001021;28;20210;-70
2023/06/12 08:30:17;;;;;;;6.10;3.47;;;33.20;51.60;;;;;;5002921;28;20691;-69
2023/06/12 08:32:42;;;;;;;3.80;3.45;;;31.70;53.00;;;;;;5000214;28;20719;-70
2023/06/12 08:35:08;;;;;;;5.25;3.45;;;31.90;53.70;;;;;;5003372;28;20212;-70
2023/06/12 08:37:34;;;;;;;4.53;3.33;;;32.50;53.30;;;;;;4995577;28;20209;-70
2023/06/12 08:40:00;;;;;;;5.13;3.40;;;32.60;53.20;;;;;;5005264;28;20730;-68
2023/06/12 08:42:26;;;;;;;5.95;3.22;;;31.80;54.60;;;;;;5000663;28;20217;-70
2023/06/12 08:45:02;;;;;;;5.63;3.60;;;31.60;55.20;;;;;;5003862;28;20664;-70
2023/06/12 08:47:34;;;;;;;5.90;3.90;;;32.60;54.60;;;;;;4999246;28;20839;-70
2023/06/12 08:50:00;;;;;;;5.13;3.40;;;32.40;54.40;;;;;;5002224;28;20401;-70
2023/06/12 08:52:28;;;;;;;8.80;3.67;;;33.10;54.10;;;;;;4999194;28;20268;-70
2023/06/12 08:54:54;;;;;;;7.00;3.70;;;32.60;54.10;;;;;;5006303;28;20223;-70
2023/06/12 08:57:20;;;;;;;5.63;3.42;;;31.80;54.60;;;;;;5013902;28;20221;-70
2023/06/12 08:59:46;;;;;;;4.88;3.72;;;32.00;54.50;;;;;;5002634;28;20173;-70
2023/06/12 09:02:12;;;;;;;5.85;3.97;;;31.60;54.90;;;;;;4999491;28;20195;-70
2023/06/12 09:05:01;;;;;;;3.85;3.47;;;30.90;55.00;;;;;;4999727;28;20218;-70
2023/06/12 09:07:28;;;;;;;4.75;3.88;;;31.20;55.50;;;;;;4998383;28;20571;-70
2023/06/12 09:09:53;;;;;;;6.60;5.18;;;31.50;55.60;;;;;;5000195;28;20206;-70
2023/06/12 09:12:19;;;;;;;4.18;3.78;;;31.30;55.10;;;;;;5002665;28;20299;-69
2023/06/12 09:14:48;;;;;;;4.40;3.88;;;31.50;55.10;;;;;;4999883;28;20197;-70
2023/06/12 09:17:13;;;;;;;7.75;3.72;;;30.70;55.00;;;;;;5001511;28;20196;-70
2023/06/12 09:19:46;;;;;;;6.53;5.57;;;31.20;56.50;;;;;;5001224;28;20202;-70
2023/06/12 09:22:12;;;;;;;5.43;4.25;;;31.00;56.40;;;;;;5001597;28;20209;-70
2023/06/12 09:24:38;;;;;;;11.10;4.47;;;29.90;57.20;;;;;;5004199;28;20220;-71
2023/06/12 09:27:04;;;;;;;6.22;3.90;;;30.40;57.90;;;;;;5001635;28;20243;-71
2023/06/12 09:29:31;;;;;;;4.55;3.97;;;30.60;57.60;;;;;;4999707;28;20182;-71
2023/06/12 09:32:03;;;;;;;7.30;5.32;;;30.90;57.50;;;;;;5002301;28;20213;-70
2023/06/12 09:34:33;;;;;;;5.18;3.63;;;30.00;58.00;;;;;;4999955;28;20224;-70
2023/06/12 09:37:00;;;;;;;5.15;3.38;;;29.70;58.90;;;;;;5001432;28;20201;-70
2023/06/12 09:39:27;;;;;;;5.75;4.28;;;29.50;59.60;;;;;;4998269;28;20665;-71
2023/06/12 09:41:54;;;;;;;7.50;4.30;;;28.60;60.70;;;;;;5008451;28;20544;-71
2023/06/12 09:44:22;;;;;;;8.30;3.65;;;28.70;60.60;;;;;;5008860;28;20255;-71
2023/06/12 09:46:48;;;;;;;4.55;3.80;;;28.70;61.10;;;;;;5005724;28;20277;-71
2023/06/12 09:49:14;;;;;;;5.82;3.95;;;28.10;61.30;;;;;;5008218;28;20679;-71
2023/06/12 09:51:49;;;;;;;5.28;3.70;;;28.10;61.20;;;;;;5006667;28;20308;-71
2023/06/12 09:54:21;;;;;;;6.30;3.70;;;27.50;62.50;;;;;;5003774;28;20220;-70
2023/06/12 09:56:48;;;;;;;9.18;5.97;;;27.00;63.00;;;;;;5003043;28;20196;-71
2023/06/12 09:59:17;;;;;;;5.43;3.70;;;27.10;63.30;;;;;;5005733;28;20180;-72
2023/06/12 10:01:46;;;;;;;6.22;4.28;;;27.90;62.60;;;;;;5004213;28;20217;-71
2023/06/12 10:04:14;;;;;;;6.50;4.35;;;28.00;62.00;;;;;;5003999;28;20209;-70
2023/06/12 10:06:42;;;;;;;5.15;3.67;;;28.10;62.30;;;;;;5006724;28;20249;-70
2023/06/12 10:09:10;;;;;;;7.78;3.70;;;28.70;62.30;;;;;;5002428;28;20212;-70
2023/06/12 10:11:37;;;;;;;5.20;3.45;;;28.50;61.50;;;;;;5001773;28;20166;-71
2023/06/12 10:14:03;;;;;;;7.47;4.35;;;28.10;62.00;;;;;;5007671;28;20220;-71
2023/06/12 10:16:30;;;;;;;6.22;3.55;;;27.90;62.90;;;;;;5004891;28;20301;-71
2023/06/12 10:18:57;;;;;;;7.93;4.00;;;28.00;63.60;;;;;;5006036;28;20580;-71
2023/06/12 10:21:23;;;;;;;4.55;3.80;;;28.30;63.30;;;;;;5009501;28;20216;-71
2023/06/12 10:23:51;;;;;;;6.70;3.75;;;28.20;63.40;;;;;;5006929;28;20717;-71
2023/06/12 10:26:17;;;;;;;6.50;3.95;;;28.20;63.70;;;;;;5005291;28;20192;-71
2023/06/12 10:28:43;;;;;;;5.95;4.05;;;28.80;63.70;;;;;;5005357;28;20213;-70
2023/06/12 10:31:15;;;;;;;5.30;3.72;;;28.70;64.00;;;;;;5007432;28;20592;-71
2023/06/12 10:34:09;;;;;;;7.50;3.90;;;28.40;65.10;;;;;;5005080;28;20222;-70
2023/06/12 10:36:42;;;;;;;8.35;4.88;;;28.40;65.80;;;;;;5004649;28;20214;-71
2023/06/12 10:39:17;;;;;;;6.00;3.95;;;28.00;66.80;;;;;;5003963;28;20247;-69
2023/06/12 10:41:53;;;;;;;7.22;3.92;;;26.80;68.50;;;;;;4998489;28;20181;-70
2023/06/12 10:44:36;;;;;;;4.88;4.35;;;26.40;69.60;;;;;;5002778;28;20299;-71
2023/06/12 10:47:02;;;;;;;6.05;4.28;;;27.00;70.60;;;;;;5001155;28;20316;-72
2023/06/12 10:49:28;;;;;;;11.00;6.00;;;27.60;69.40;;;;;;5003056;28;20241;-69
2023/06/12 10:51:54;;;;;;;5.47;4.63;;;27.50;69.80;;;;;;5008323;28;20699;-71
2023/06/12 10:54:26;;;;;;;5.53;4.57;;;27.90;68.80;;;;;;5002076;28;20221;-71
2023/06/12 10:56:57;;;;;;;4.95;4.25;;;27.50;68.90;;;;;;5000682;28;20205;-71
2023/06/12 10:59:55;;;;;;;7.25;4.35;;;27.30;69.80;;;;;;5002316;28;20276;-71
2023/06/12 11:02:21;;;;;;;8.05;3.97;;;27.40;69.80;;;;;;5011072;28;20586;-73
2023/06/12 11:04:47;;;;;;;7.05;6.15;;;27.50;69.60;;;;;;5010582;28;20213;-72
2023/06/12 11:07:15;;;;;;;6.53;4.97;;;26.80;70.40;;;;;;5010867;28;20213;-70
2023/06/12 11:09:41;;;;;;;5.28;4.43;;;26.50;71.90;;;;;;5007381;28;20264;-72
2023/06/12 11:12:10;;;;;;;6.63;4.18;;;26.20;72.20;;;;;;5010039;28;20213;-71
2023/06/12 11:14:36;;;;;;;6.28;4.38;;;26.20;71.90;;;;;;5007727;28;20202;-71
2023/06/12 11:17:02;;;;;;;4.72;4.32;;;26.20;72.00;;;;;;5008246;28;20211;-72
2023/06/12 11:19:28;;;;;;;6.55;3.67;;;26.20;71.70;;;;;;5004998;28;20213;-72
2023/06/12 11:21:57;;;;;;;7.65;4.40;;;26.10;71.90;;;;;;5004845;28;20205;-70
2023/06/12 11:24:23;;;;;;;5.07;3.90;;;26.30;71.60;;;;;;5005222;28;20213;-69
2023/06/12 11:26:50;;;;;;;5.72;4.43;;;26.40;71.60;;;;;;5005334;28;20194;-69
2023/06/12 11:29:17;;;;;;;6.68;5.75;;;26.40;71.10;;;;;;5003416;28;20185;-70
2023/06/12 11:31:50;;;;;;;7.60;5.65;;;26.60;70.90;;;;;;5003732;28;20283;-70
2023/06/12 11:34:16;;;;;;;6.40;4.50;;;26.50;70.10;;;;;;5002831;28;20239;-70
2023/06/12 11:36:42;;;;;;;5.60;4.00;;;26.30;70.60;;;;;;5006138;28;20700;-70
2023/06/12 11:39:25;;;;;;;5.75;4.15;;;26.40;70.60;;;;;;5011322;28;20209;-70
2023/06/12 11:41:53;;;;;;;6.25;4.57;;;26.40;69.80;;;;;;5025879;28;20181;-70
2023/06/12 11:44:19;;;;;;;11.05;5.35;;;26.70;69.60;;;;;;5010831;28;20720;-71
2023/06/12 11:46:44;;;;;;;6.38;4.75;;;26.80;69.30;;;;;;5007682;28;20304;-71
2023/06/12 11:49:12;;;;;;;6.65;4.93;;;27.00;69.40;;;;;;5009497;28;20205;-71
2023/06/12 11:51:39;;;;;;;7.57;4.78;;;27.00;68.90;;;;;;5009150;28;20296;-70
2023/06/12 11:54:07;;;;;;;5.40;4.25;;;26.70;69.80;;;;;;5008780;28;20229;-71
2023/06/12 11:56:33;;;;;;;9.73;4.45;;;26.40;70.20;;;;;;5005454;28;20204;-71
2023/06/12 11:58:59;;;;;;;5.38;3.92;;;26.80;70.20;;;;;;5006967;28;20205;-71
2023/06/12 12:01:25;;;;;;;5.75;4.18;;;27.10;69.20;;;;;;5004810;28;20205;-71
2023/06/12 12:03:52;;;;;;;4.65;4.13;;;27.30;67.20;;;;;;5004999;28;20219;-72
2023/06/12 12:06:18;;;;;;;6.07;4.20;;;27.80;67.40;;;;;;5003573;28;20213;-71
2023/06/12 12:08:44;;;;;;;6.07;3.97;;;27.30;67.20;;;;;;5003558;28;20181;-71
2023/06/12 12:11:17;;;;;;;6.28;3.97;;;27.30;67.90;;;;;;5004003;28;20205;-71
2023/06/12 12:13:58;;;;;;;6.03;3.97;;;27.70;67.90;;;;;;5000494;28;20217;-71
2023/06/12 12:16:28;;;;;;;5.70;3.95;;;27.60;67.90;;;;;;5010255;28;20624;-70
2023/06/12 12:18:54;;;;;;;6.55;4.20;;;27.60;67.80;;;;;;5010459;28;20220;-70
2023/06/12 12:21:23;;;;;;;4.82;3.88;;;27.80;68.00;;;;;;5010454;28;20688;-70
2023/06/12 12:23:48;;;;;;;5.82;4.35;;;27.50;68.30;;;;;;5008795;28;20584;-70
2023/06/12 12:26:15;;;;;;;5.60;3.85;;;26.70;68.50;;;;;;5009155;28;20200;-71
2023/06/12 12:28:41;;;;;;;5.82;4.15;;;26.70;70.00;;;;;;5005727;28;20217;-69
2023/06/12 12:31:08;;;;;;;6.07;4.03;;;26.40;69.20;;;;;;5007526;28;20796;-69
2023/06/12 12:33:34;;;;;;;6.80;3.83;;;26.40;69.50;;;;;;5005999;28;20278;-68
2023/06/12 12:36:00;;;;;;;5.25;3.63;;;26.20;70.00;;;;;;5006543;28;20272;-70
2023/06/12 12:38:26;;;;;;;5.28;3.95;;;26.10;69.80;;;;;;5004125;28;20634;-69
2023/06/12 12:40:51;;;;;;;4.22;3.83;;;26.20;69.90;;;;;;5004727;28;20251;-70
2023/06/12 12:43:17;;;;;;;6.00;3.90;;;26.30;69.40;;;;;;5004369;28;20589;-70
2023/06/12 12:45:43;;;;;;;5.68;4.13;;;26.40;69.60;;;;;;5006604;28;20229;-71
2023/06/12 12:48:08;;;;;;;5.28;3.70;;;26.20;69.50;;;;;;5004088;28;20236;-70